Time;durP1;ratioP1;P1;durP2;ratioP2;P2;SDS_P1;SDS_P2;PMS_P1;PMS_P2;Temp;Humidity;BMP_temperature;BMP_pressure;BME280_temperature;BME280_humidity;BME280_pressure;Samples;Min_cycle;Max_cycle;Signal;HPM_P1;HPM_P2
2020/12/24 00:01:08;;;;;;;2.47;0.97;;;;;;;;;;5034671;28;20053;-79
2020/12/24 00:03:34;;;;;;;2.50;1.10;;;;;;;;;;5019893;28;20033;-80
2020/12/24 00:06:00;;;;;;;3.10;1.30;;;;;;;;;;5017747;28;20121;-80
2020/12/24 00:08:26;;;;;;;2.73;1.33;;;;;;;;;;5018798;28;20029;-80
2020/12/24 00:10:52;;;;;;;4.43;0.87;;;;;;;;;;5022193;28;20100;-80
2020/12/24 00:13:18;;;;;;;4.50;1.80;;;;;;;;;;5018328;28;20488;-79
2020/12/24 00:15:44;;;;;;;4.30;1.70;;;;;;;;;;5038617;28;20144;-79
2020/12/24 00:18:12;;;;;;;3.87;1.47;;;;;;;;;;5047485;28;20029;-79
2020/12/24 00:20:38;;;;;;;3.57;1.30;;;;;;;;;;5020907;28;20033;-82
2020/12/24 00:23:04;;;;;;;1.63;0.67;;;;;;;;;;5016322;28;20022;-79
2020/12/24 00:25:30;;;;;;;3.07;0.50;;;;;;;;;;5016615;28;20350;-80
2020/12/24 00:27:56;;;;;;;1.77;0.70;;;;;;;;;;5033346;28;20036;-80
2020/12/24 00:30:23;;;;;;;1.53;0.70;;;;;;;;;;5026057;28;20617;-79
2020/12/24 00:32:49;;;;;;;1.17;0.50;;;;;;;;;;5016079;28;20054;-79
2020/12/24 00:35:15;;;;;;;2.27;0.80;;;;;;;;;;5015354;28;20034;-79
2020/12/24 00:37:41;;;;;;;4.07;1.50;;;;;;;;;;5016479;28;20022;-79
2020/12/24 00:40:07;;;;;;;2.27;0.60;;;;;;;;;;5014967;28;20030;-79
2020/12/24 00:42:33;;;;;;;1.53;0.50;;;;;;;;;;5014798;28;20831;-79
2020/12/24 00:44:59;;;;;;;2.70;0.60;;;;;;;;;;5011677;28;20080;-79
2020/12/24 00:47:25;;;;;;;1.67;0.50;;;;;;;;;;4994251;28;20042;-80
2020/12/24 00:49:53;;;;;;;0.70;0.47;;;;;;;;;;5026888;28;20188;-79
2020/12/24 00:52:20;;;;;;;1.50;0.57;;;;;;;;;;5027062;28;20041;-79
2020/12/24 00:54:46;;;;;;;0.30;0.30;;;;;;;;;;5037017;28;20656;-80
2020/12/24 00:57:12;;;;;;;1.17;0.53;;;;;;;;;;4994960;28;20022;-79
2020/12/24 00:59:38;;;;;;;0.70;0.40;;;;;;;;;;4994537;28;20026;-79
2020/12/24 01:02:04;;;;;;;1.20;0.40;;;;;;;;;;5002292;28;20050;-79
2020/12/24 01:04:30;;;;;;;1.43;0.70;;;;;;;;;;5014320;28;20076;-79
2020/12/24 01:07:01;;;;;;;1.13;0.30;;;;;;;;;;5014985;28;20034;-79
2020/12/24 01:09:27;;;;;;;1.13;0.37;;;;;;;;;;5014973;28;20068;-80
2020/12/24 01:11:53;;;;;;;1.50;0.57;;;;;;;;;;5013842;28;20497;-80
2020/12/24 01:14:19;;;;;;;1.20;0.50;;;;;;;;;;5015440;28;20044;-80
2020/12/24 01:16:45;;;;;;;0.57;0.20;;;;;;;;;;5011008;28;20038;-78
2020/12/24 01:19:11;;;;;;;2.00;0.40;;;;;;;;;;5027104;28;20077;-81
2020/12/24 01:21:37;;;;;;;1.43;0.40;;;;;;;;;;5027022;28;20031;-80
2020/12/24 01:24:04;;;;;;;2.00;0.40;;;;;;;;;;5042328;28;20036;-79
2020/12/24 01:26:30;;;;;;;1.23;0.50;;;;;;;;;;5013104;28;20061;-80
2020/12/24 01:28:57;;;;;;;1.00;0.40;;;;;;;;;;5015049;28;20034;-80
2020/12/24 01:31:23;;;;;;;0.53;0.40;;;;;;;;;;5013930;28;20044;-78
2020/12/24 01:33:49;;;;;;;1.13;0.60;;;;;;;;;;5011218;28;20511;-80
2020/12/24 01:36:20;;;;;;;2.10;0.53;;;;;;;;;;5012696;28;20040;-80
2020/12/24 01:38:46;;;;;;;1.07;0.40;;;;;;;;;;5015028;28;20057;-80
2020/12/24 01:41:12;;;;;;;0.33;0.20;;;;;;;;;;5013146;28;20032;-81
2020/12/24 01:43:38;;;;;;;0.70;0.30;;;;;;;;;;5014737;28;20038;-80
2020/12/24 01:46:04;;;;;;;0.97;0.33;;;;;;;;;;5014124;28;20034;-80
2020/12/24 01:48:31;;;;;;;1.40;0.40;;;;;;;;;;5015061;28;20153;-81
2020/12/24 01:50:57;;;;;;;1.70;0.20;;;;;;;;;;5015083;28;20096;-79
2020/12/24 01:53:24;;;;;;;1.13;0.20;;;;;;;;;;5015372;28;20500;-80
2020/12/24 01:55:51;;;;;;;3.60;0.50;;;;;;;;;;5015191;28;20022;-81
2020/12/24 01:58:17;;;;;;;4.60;0.30;;;;;;;;;;5013778;28;20484;-80
2020/12/24 02:00:46;;;;;;;1.60;0.20;;;;;;;;;;5010971;28;20026;-82
2020/12/24 02:03:13;;;;;;;1.43;0.27;;;;;;;;;;5015824;28;20032;-80
2020/12/24 02:05:39;;;;;;;0.57;0.20;;;;;;;;;;5015586;28;20030;-80
2020/12/24 02:08:05;;;;;;;0.10;0.10;;;;;;;;;;5007965;28;20434;-80
2020/12/24 02:10:31;;;;;;;5.73;0.60;;;;;;;;;;5002550;28;20045;-79
2020/12/24 02:12:57;;;;;;;1.57;0.40;;;;;;;;;;5017938;28;20068;-79
2020/12/24 02:15:23;;;;;;;1.00;0.40;;;;;;;;;;5017778;28;20026;-79
2020/12/24 02:17:49;;;;;;;2.27;0.40;;;;;;;;;;5015569;28;20497;-80
2020/12/24 02:20:15;;;;;;;2.03;0.57;;;;;;;;;;5016771;28;20030;-79
2020/12/24 02:22:42;;;;;;;4.47;0.50;;;;;;;;;;5016593;28;20109;-80
2020/12/24 02:25:08;;;;;;;2.10;0.40;;;;;;;;;;5028326;28;20052;-81
2020/12/24 02:27:34;;;;;;;1.47;0.47;;;;;;;;;;5026844;28;20034;-79
2020/12/24 02:30:02;;;;;;;2.27;0.50;;;;;;;;;;5017529;28;20033;-79
2020/12/24 02:32:31;;;;;;;1.30;0.30;;;;;;;;;;5017286;28;20029;-79
2020/12/24 02:34:57;;;;;;;2.27;0.40;;;;;;;;;;5018498;28;20105;-79
2020/12/24 02:37:24;;;;;;;1.43;0.40;;;;;;;;;;5018071;28;20527;-80
2020/12/24 02:39:53;;;;;;;3.50;0.50;;;;;;;;;;5017621;28;20058;-79
2020/12/24 02:42:19;;;;;;;5.77;0.83;;;;;;;;;;5016706;28;20030;-80
2020/12/24 02:44:45;;;;;;;0.80;0.20;;;;;;;;;;5014869;28;20042;-80
2020/12/24 02:47:12;;;;;;;0.93;0.30;;;;;;;;;;5038748;28;20030;-80
2020/12/24 02:49:39;;;;;;;2.73;0.20;;;;;;;;;;5037166;28;20029;-79
2020/12/24 02:52:05;;;;;;;5.40;1.13;;;;;;;;;;5017850;28;20037;-80
2020/12/24 02:54:31;;;;;;;1.80;0.50;;;;;;;;;;5030895;28;20109;-79
2020/12/24 02:57:00;;;;;;;1.27;0.37;;;;;;;;;;5030365;28;20421;-80
2020/12/24 02:59:27;;;;;;;2.37;0.40;;;;;;;;;;5018575;28;20030;-79
2020/12/24 03:01:53;;;;;;;1.83;0.40;;;;;;;;;;5016988;28;20041;-79
2020/12/24 03:04:20;;;;;;;1.90;0.50;;;;;;;;;;5016296;28;20098;-80
2020/12/24 03:06:46;;;;;;;1.30;0.50;;;;;;;;;;5017602;28;20029;-80
2020/12/24 03:09:12;;;;;;;2.30;0.60;;;;;;;;;;5015758;28;20053;-80
2020/12/24 03:11:44;;;;;;;2.53;0.90;;;;;;;;;;5019174;28;20052;-79
2020/12/24 03:14:10;;;;;;;5.13;0.80;;;;;;;;;;5018030;28;20167;-80
2020/12/24 03:16:36;;;;;;;2.00;0.77;;;;;;;;;;5018500;28;20448;-79
2020/12/24 03:19:02;;;;;;;1.87;0.40;;;;;;;;;;5017921;28;20026;-80
2020/12/24 03:21:28;;;;;;;2.83;0.70;;;;;;;;;;5018002;28;20180;-79
2020/12/24 03:23:54;;;;;;;2.63;0.50;;;;;;;;;;5017113;28;20038;-80
2020/12/24 03:26:20;;;;;;;2.17;0.60;;;;;;;;;;5018048;28;20034;-80
2020/12/24 03:28:46;;;;;;;0.63;0.30;;;;;;;;;;5018047;28;20129;-80
2020/12/24 03:31:13;;;;;;;4.27;0.40;;;;;;;;;;5017730;28;20092;-79
2020/12/24 03:33:39;;;;;;;1.73;0.30;;;;;;;;;;5018097;28;20030;-80
2020/12/24 03:36:05;;;;;;;1.63;0.43;;;;;;;;;;5017226;28;20032;-79
2020/12/24 03:38:31;;;;;;;2.63;0.57;;;;;;;;;;5018194;28;20022;-80
2020/12/24 03:40:57;;;;;;;1.67;0.50;;;;;;;;;;5017512;28;20121;-79
2020/12/24 03:43:23;;;;;;;2.70;0.40;;;;;;;;;;5017232;28;20056;-79
2020/12/24 03:45:49;;;;;;;3.00;0.50;;;;;;;;;;5014396;28;20085;-79
2020/12/24 03:48:15;;;;;;;2.33;0.50;;;;;;;;;;5048452;28;20037;-79
2020/12/24 03:50:41;;;;;;;3.00;0.50;;;;;;;;;;5016844;28;20569;-79
2020/12/24 03:53:07;;;;;;;2.23;0.40;;;;;;;;;;5017060;28;20124;-80
2020/12/24 03:55:33;;;;;;;1.93;0.47;;;;;;;;;;5002249;28;20022;-80
2020/12/24 03:57:59;;;;;;;3.00;0.50;;;;;;;;;;5043428;28;20101;-79
2020/12/24 04:00:25;;;;;;;1.30;0.40;;;;;;;;;;5014907;28;20029;-81
2020/12/24 04:02:51;;;;;;;1.13;0.30;;;;;;;;;;5016558;28;20545;-80
2020/12/24 04:05:17;;;;;;;3.00;0.40;;;;;;;;;;5023802;28;20121;-79
2020/12/24 04:07:44;;;;;;;1.67;0.37;;;;;;;;;;5017680;28;20473;-80
2020/12/24 04:10:10;;;;;;;2.27;0.30;;;;;;;;;;5012778;28;20097;-79
2020/12/24 04:12:36;;;;;;;3.60;0.50;;;;;;;;;;5016867;28;20409;-80
2020/12/24 04:15:02;;;;;;;4.50;1.10;;;;;;;;;;5016542;28;20117;-80
2020/12/24 04:17:28;;;;;;;2.63;0.53;;;;;;;;;;5015144;28;20033;-79
2020/12/24 04:19:54;;;;;;;0.40;0.20;;;;;;;;;;5015811;28;20029;-80
2020/12/24 04:22:20;;;;;;;1.83;0.30;;;;;;;;;;5015609;28;20198;-79
2020/12/24 04:24:46;;;;;;;2.53;0.53;;;;;;;;;;5011553;28;20069;-80
2020/12/24 04:27:12;;;;;;;2.60;0.40;;;;;;;;;;5015571;28;20029;-78
2020/12/24 04:29:38;;;;;;;1.53;0.30;;;;;;;;;;5015806;28;20026;-79
2020/12/24 04:32:05;;;;;;;1.83;0.60;;;;;;;;;;5015036;28;20038;-80
2020/12/24 04:34:32;;;;;;;3.50;1.23;;;;;;;;;;5015061;28;20053;-79
2020/12/24 04:36:58;;;;;;;1.70;0.83;;;;;;;;;;5011378;28;20034;-80
2020/12/24 04:39:24;;;;;;;1.60;0.40;;;;;;;;;;5028347;28;20061;-80
2020/12/24 04:41:52;;;;;;;1.10;0.33;;;;;;;;;;5004760;28;20029;-81
2020/12/24 04:44:18;;;;;;;2.87;0.30;;;;;;;;;;5014569;28;20085;-80
2020/12/24 04:46:44;;;;;;;1.50;0.20;;;;;;;;;;5015229;28;20072;-80
2020/12/24 04:49:11;;;;;;;1.50;0.30;;;;;;;;;;5014531;28;20033;-80
2020/12/24 04:51:37;;;;;;;2.10;0.40;;;;;;;;;;5013763;28;20037;-80
2020/12/24 04:54:03;;;;;;;3.43;0.80;;;;;;;;;;5014840;28;20033;-79
2020/12/24 04:56:29;;;;;;;2.07;0.60;;;;;;;;;;5014590;28;20022;-80
2020/12/24 04:58:55;;;;;;;2.70;0.60;;;;;;;;;;5013302;28;20038;-80
2020/12/24 05:01:22;;;;;;;2.73;0.70;;;;;;;;;;5013536;28;20040;-80
2020/12/24 05:03:48;;;;;;;5.03;0.50;;;;;;;;;;5012512;28;20034;-80
2020/12/24 05:06:15;;;;;;;1.83;0.40;;;;;;;;;;5012933;28;20108;-80
2020/12/24 05:08:50;;;;;;;1.53;0.37;;;;;;;;;;5012019;28;20040;-80
2020/12/24 05:11:16;;;;;;;1.70;0.40;;;;;;;;;;4995534;28;20092;-80
2020/12/24 05:13:42;;;;;;;3.17;0.40;;;;;;;;;;5006190;28;20080;-80
2020/12/24 05:16:15;;;;;;;1.53;0.30;;;;;;;;;;5012082;28;20029;-80
2020/12/24 05:18:41;;;;;;;3.03;0.45;;;;;;;;;;4998084;28;20030;-79
2020/12/24 05:21:07;;;;;;;2.10;0.20;;;;;;;;;;4992634;28;20041;-80
2020/12/24 05:23:34;;;;;;;3.20;0.33;;;;;;;;;;4999029;28;20028;-79
2020/12/24 05:26:00;;;;;;;0.97;0.40;;;;;;;;;;5015110;28;20026;-80
2020/12/24 05:28:29;;;;;;;0.33;0.10;;;;;;;;;;5016151;28;20037;-81
2020/12/24 05:30:56;;;;;;;0.93;0.20;;;;;;;;;;5016526;28;20037;-81
2020/12/24 05:33:29;;;;;;;4.67;1.00;;;;;;;;;;5016309;28;20560;-81
2020/12/24 05:36:13;;;;;;;2.45;0.30;;;;;;;;;;5005971;28;20113;-81
2020/12/24 05:38:39;;;;;;;1.77;0.40;;;;;;;;;;5021385;28;20555;-80
2020/12/24 05:41:24;;;;;;;3.03;0.60;;;;;;;;;;5018584;28;20514;-81
2020/12/24 05:44:20;;;;;;;2.63;1.53;;;;;;;;;;5015620;28;20030;-81
2020/12/24 05:46:48;;;;;;;2.53;0.40;;;;;;;;;;4997362;28;20069;-81
2020/12/24 05:49:18;;;;;;;3.13;0.80;;;;;;;;;;5014936;28;20945;-81
2020/12/24 05:51:48;;;;;;;3.10;0.70;;;;;;;;;;5014136;28;20026;-80
2020/12/24 05:54:18;;;;;;;1.00;0.40;;;;;;;;;;5017153;28;20034;-81
2020/12/24 05:56:45;;;;;;;0.97;0.30;;;;;;;;;;4994747;28;20042;-81
2020/12/24 05:59:27;;;;;;;2.80;0.47;;;;;;;;;;4994309;28;20113;-81
2020/12/24 06:02:00;;;;;;;1.33;0.27;;;;;;;;;;5002641;28;20124;-81
2020/12/24 06:04:44;;;;;;;0.63;0.40;;;;;;;;;;5013199;28;20101;-81
2020/12/24 06:07:13;;;;;;;2.73;0.80;;;;;;;;;;5012828;28;20033;-80
2020/12/24 06:09:40;;;;;;;2.17;0.30;;;;;;;;;;5008726;28;20042;-81
2020/12/24 06:12:25;;;;;;;2.73;0.80;;;;;;;;;;5026128;28;20035;-81
2020/12/24 06:14:52;;;;;;;1.97;0.73;;;;;;;;;;5026281;28;20034;-81
2020/12/24 06:17:20;;;;;;;1.90;0.70;;;;;;;;;;5025790;28;20101;-80
2020/12/24 06:19:46;;;;;;;4.33;0.43;;;;;;;;;;5013494;28;20030;-80
2020/12/24 06:22:12;;;;;;;1.80;0.83;;;;;;;;;;5012969;28;20444;-81
2020/12/24 06:24:40;;;;;;;4.70;0.90;;;;;;;;;;5021443;28;20064;-81
2020/12/24 06:27:25;;;;;;;3.17;1.37;;;;;;;;;;5013063;28;20033;-81
2020/12/24 06:29:52;;;;;;;4.27;1.40;;;;;;;;;;5005942;28;20116;-81
2020/12/24 06:32:20;;;;;;;4.53;1.53;;;;;;;;;;5015240;28;20441;-81
2020/12/24 06:34:46;;;;;;;6.33;3.50;;;;;;;;;;5013470;28;20912;-80
2020/12/24 06:37:16;;;;;;;2.63;1.00;;;;;;;;;;5009758;28;20061;-81
2020/12/24 06:39:49;;;;;;;2.63;0.43;;;;;;;;;;5013338;28;20029;-81
2020/12/24 06:42:34;;;;;;;2.20;0.70;;;;;;;;;;5012686;28;20026;-81
2020/12/24 06:45:00;;;;;;;4.33;1.10;;;;;;;;;;5013577;28;20088;-81
2020/12/24 06:47:26;;;;;;;3.83;0.90;;;;;;;;;;5009338;28;20034;-81
2020/12/24 06:49:52;;;;;;;4.27;1.20;;;;;;;;;;5033352;28;20477;-81
2020/12/24 06:52:32;;;;;;;6.00;1.57;;;;;;;;;;5014355;28;20029;-81
2020/12/24 06:55:17;;;;;;;3.23;0.87;;;;;;;;;;5025607;28;20034;-81
2020/12/24 06:57:43;;;;;;;6.30;0.53;;;;;;;;;;5033603;28;20032;-81
2020/12/24 07:00:21;;;;;;;2.00;0.50;;;;;;;;;;5016463;28;20038;-82
2020/12/24 07:02:51;;;;;;;4.23;0.80;;;;;;;;;;4994477;28;20031;-81
2020/12/24 07:05:36;;;;;;;4.17;1.20;;;;;;;;;;4994405;28;20034;-82
2020/12/24 07:08:02;;;;;;;4.93;1.00;;;;;;;;;;5006981;28;20588;-81
2020/12/24 07:10:44;;;;;;;3.07;0.97;;;;;;;;;;5012558;28;20037;-82
2020/12/24 07:13:11;;;;;;;4.40;0.87;;;;;;;;;;5013760;28;20080;-81
2020/12/24 07:15:44;;;;;;;1.80;0.60;;;;;;;;;;5006973;28;20120;-82
2020/12/24 07:18:13;;;;;;;2.05;0.70;;;;;;;;;;5013599;28;20105;-82
2020/12/24 07:20:40;;;;;;;1.17;0.43;;;;;;;;;;5037317;28;20555;-82
2020/12/24 07:23:09;;;;;;;2.67;0.70;;;;;;;;;;5022199;28;20053;-81
2020/12/24 07:25:36;;;;;;;1.27;0.40;;;;;;;;;;5013264;28;20388;-82
2020/12/24 07:28:02;;;;;;;1.67;0.77;;;;;;;;;;5013006;28;20026;-81
2020/12/24 07:30:29;;;;;;;2.77;1.20;;;;;;;;;;5013686;28;20374;-82
2020/12/24 07:32:55;;;;;;;1.47;0.70;;;;;;;;;;5012993;28;20029;-82
2020/12/24 07:35:22;;;;;;;6.13;2.67;;;;;;;;;;5014795;28;20399;-82
2020/12/24 07:37:49;;;;;;;3.87;0.80;;;;;;;;;;5024762;28;20026;-82
2020/12/24 07:40:16;;;;;;;4.23;0.90;;;;;;;;;;5033602;28;20092;-82
2020/12/24 07:42:45;;;;;;;4.67;1.10;;;;;;;;;;5034440;28;20129;-82
2020/12/24 07:45:13;;;;;;;2.33;0.90;;;;;;;;;;5021388;28;20499;-82
2020/12/24 07:47:44;;;;;;;1.90;0.60;;;;;;;;;;5013556;28;20022;-82
2020/12/24 07:50:10;;;;;;;5.33;0.90;;;;;;;;;;5015055;28;20030;-82
2020/12/24 07:52:36;;;;;;;6.47;0.60;;;;;;;;;;5023024;28;20041;-82
2020/12/24 07:55:10;;;;;;;4.37;0.80;;;;;;;;;;5017885;28;20087;-82
2020/12/24 07:57:36;;;;;;;2.10;0.73;;;;;;;;;;5019064;28;20402;-82
2020/12/24 08:00:03;;;;;;;7.37;1.10;;;;;;;;;;5023398;28;20036;-82
2020/12/24 08:02:31;;;;;;;3.63;0.77;;;;;;;;;;5020925;28;20433;-81
2020/12/24 08:04:58;;;;;;;2.83;0.93;;;;;;;;;;5017452;28;20030;-83
2020/12/24 08:07:25;;;;;;;3.63;1.53;;;;;;;;;;5017168;28;20041;-82
2020/12/24 08:09:51;;;;;;;4.83;0.97;;;;;;;;;;5016683;28;20117;-82
2020/12/24 08:12:22;;;;;;;5.03;1.03;;;;;;;;;;5017318;28;20033;-81
2020/12/24 08:14:48;;;;;;;4.37;0.70;;;;;;;;;;5015994;28;20029;-81
2020/12/24 08:17:38;;;;;;;4.57;1.10;;;;;;;;;;4999314;28;20054;-81
2020/12/24 08:20:08;;;;;;;4.47;1.00;;;;;;;;;;5002082;28;20054;-82
2020/12/24 08:22:41;;;;;;;2.93;0.67;;;;;;;;;;5031413;28;20045;-82
2020/12/24 08:25:08;;;;;;;7.90;1.00;;;;;;;;;;5014159;28;20042;-81
2020/12/24 08:27:35;;;;;;;3.50;1.00;;;;;;;;;;5015270;28;20041;-82
2020/12/24 08:30:01;;;;;;;5.63;1.00;;;;;;;;;;5015468;28;20057;-81
2020/12/24 08:32:28;;;;;;;4.10;1.00;;;;;;;;;;5015979;28;20030;-80
2020/12/24 08:34:54;;;;;;;3.00;1.10;;;;;;;;;;4999176;28;20655;-79
2020/12/24 08:37:27;;;;;;;7.87;1.97;;;;;;;;;;5012693;28;20484;-80
2020/12/24 08:39:53;;;;;;;4.95;1.00;;;;;;;;;;5012948;28;20021;-80
2020/12/24 08:42:22;;;;;;;2.50;0.83;;;;;;;;;;5009947;28;20379;-82
2020/12/24 08:44:54;;;;;;;6.27;0.93;;;;;;;;;;5009064;28;20030;-81
2020/12/24 08:47:21;;;;;;;3.90;0.83;;;;;;;;;;5012021;28;20477;-79
2020/12/24 08:49:47;;;;;;;7.70;1.43;;;;;;;;;;5013458;28;20030;-81
2020/12/24 08:52:18;;;;;;;7.53;1.50;;;;;;;;;;5009357;28;20030;-79
2020/12/24 08:55:01;;;;;;;7.77;1.37;;;;;;;;;;5025970;28;20029;-79
2020/12/24 08:57:27;;;;;;;4.30;0.90;;;;;;;;;;4993757;28;20032;-81
2020/12/24 09:00:04;;;;;;;3.43;0.97;;;;;;;;;;5001586;28;20470;-80
2020/12/24 09:02:31;;;;;;;7.00;1.00;;;;;;;;;;5007613;28;20485;-80
2020/12/24 09:04:57;;;;;;;5.30;1.23;;;;;;;;;;5028618;28;20027;-80
2020/12/24 09:07:26;;;;;;;7.63;1.30;;;;;;;;;;5024337;28;20483;-78
2020/12/24 09:10:08;;;;;;;2.03;0.70;;;;;;;;;;5021611;28;20399;-79
2020/12/24 09:12:35;;;;;;;5.43;1.10;;;;;;;;;;5017903;28;20061;-79
2020/12/24 09:15:02;;;;;;;5.87;1.57;;;;;;;;;;5014907;28;20085;-80
2020/12/24 09:17:28;;;;;;;4.73;1.30;;;;;;;;;;5009085;28;20029;-80
2020/12/24 09:20:05;;;;;;;3.57;0.87;;;;;;;;;;5018962;28;20060;-78
2020/12/24 09:22:31;;;;;;;6.83;1.20;;;;;;;;;;5019689;28;20025;-82
2020/12/24 09:24:57;;;;;;;5.63;0.73;;;;;;;;;;5022502;28;20026;-80
2020/12/24 09:27:23;;;;;;;5.50;0.70;;;;;;;;;;5019762;28;20505;-81
2020/12/24 09:29:50;;;;;;;4.97;0.90;;;;;;;;;;5021714;28;20092;-80
2020/12/24 09:32:16;;;;;;;2.67;0.33;;;;;;;;;;5019404;28;20038;-81
2020/12/24 09:34:42;;;;;;;9.47;0.87;;;;;;;;;;5023314;28;20044;-80
2020/12/24 09:37:08;;;;;;;4.67;0.53;;;;;;;;;;5026200;28;20059;-79
2020/12/24 09:39:34;;;;;;;3.53;0.50;;;;;;;;;;5033495;28;20025;-79
2020/12/24 09:42:00;;;;;;;2.93;0.50;;;;;;;;;;5027842;28;20034;-80
2020/12/24 09:44:26;;;;;;;3.23;0.53;;;;;;;;;;5020736;28;20301;-80
2020/12/24 09:46:52;;;;;;;3.83;0.57;;;;;;;;;;5019389;28;20064;-80
2020/12/24 09:49:19;;;;;;;4.03;1.27;;;;;;;;;;5022382;28;20053;-78
2020/12/24 09:51:47;;;;;;;10.10;3.10;;;;;;;;;;5017050;28;20477;-79
2020/12/24 09:54:14;;;;;;;6.30;2.63;;;;;;;;;;5022116;28;20505;-78
2020/12/24 09:56:40;;;;;;;7.67;1.50;;;;;;;;;;5017971;28;20028;-77
2020/12/24 09:59:07;;;;;;;5.00;0.83;;;;;;;;;;5015935;28;20033;-75
2020/12/24 10:01:33;;;;;;;4.13;1.33;;;;;;;;;;5008199;28;20565;-77
2020/12/24 10:03:59;;;;;;;4.40;0.70;;;;;;;;;;5017203;28;20033;-78
2020/12/24 10:06:25;;;;;;;4.00;0.60;;;;;;;;;;5009325;28;20516;-80
2020/12/24 10:08:51;;;;;;;3.10;0.77;;;;;;;;;;5012723;28;20026;-80
2020/12/24 10:11:19;;;;;;;5.30;0.80;;;;;;;;;;5012064;28;20099;-80
2020/12/24 10:13:45;;;;;;;3.47;0.47;;;;;;;;;;5010975;28;20128;-79
2020/12/24 10:16:11;;;;;;;3.33;0.60;;;;;;;;;;5013262;28;20594;-78
2020/12/24 10:18:37;;;;;;;2.30;0.50;;;;;;;;;;5004456;28;20129;-78
2020/12/24 10:21:04;;;;;;;1.70;0.50;;;;;;;;;;5013923;28;20028;-78
2020/12/24 10:23:30;;;;;;;1.73;0.30;;;;;;;;;;5010447;28;20080;-79
2020/12/24 10:25:56;;;;;;;1.27;0.30;;;;;;;;;;5009754;28;20239;-79
2020/12/24 10:28:30;;;;;;;4.83;0.80;;;;;;;;;;5011738;28;20444;-79
2020/12/24 10:31:05;;;;;;;1.47;0.50;;;;;;;;;;5020289;28;20034;-82
2020/12/24 10:33:36;;;;;;;3.23;0.73;;;;;;;;;;5015964;28;20540;-78
2020/12/24 10:36:03;;;;;;;1.70;0.30;;;;;;;;;;5006489;28;20029;-78
2020/12/24 10:38:29;;;;;;;3.43;0.60;;;;;;;;;;5017645;28;20121;-78
2020/12/24 10:41:02;;;;;;;4.67;0.60;;;;;;;;;;5008367;28;20033;-79
2020/12/24 10:43:31;;;;;;;2.77;0.83;;;;;;;;;;5010132;28;20534;-80
2020/12/24 10:46:00;;;;;;;2.80;0.87;;;;;;;;;;4995645;28;20059;-77
2020/12/24 10:48:29;;;;;;;1.70;0.37;;;;;;;;;;5014738;28;20040;-79
2020/12/24 10:50:58;;;;;;;2.10;0.63;;;;;;;;;;5014579;28;20030;-80
2020/12/24 10:53:26;;;;;;;1.70;0.63;;;;;;;;;;5009923;28;20093;-79
2020/12/24 10:55:52;;;;;;;0.80;0.20;;;;;;;;;;5011021;28;20064;-78
2020/12/24 10:58:21;;;;;;;4.67;0.60;;;;;;;;;;5007105;28;20734;-79
2020/12/24 11:00:47;;;;;;;4.97;1.30;;;;;;;;;;5007683;28;20030;-79
2020/12/24 11:03:13;;;;;;;1.43;0.70;;;;;;;;;;5015955;28;20081;-79
2020/12/24 11:05:40;;;;;;;3.53;1.47;;;;;;;;;;5020088;28;20151;-80
2020/12/24 11:08:07;;;;;;;1.00;0.40;;;;;;;;;;5018266;28;20030;-79
2020/12/24 11:10:33;;;;;;;2.03;0.57;;;;;;;;;;5024858;28;20048;-78
2020/12/24 11:12:59;;;;;;;2.50;0.57;;;;;;;;;;5015541;28;20022;-78
2020/12/24 11:15:25;;;;;;;1.30;0.40;;;;;;;;;;5014953;28;20497;-78
2020/12/24 11:17:52;;;;;;;1.67;0.40;;;;;;;;;;5013775;28;20025;-79
2020/12/24 11:20:18;;;;;;;2.83;0.40;;;;;;;;;;5015181;28;20089;-80
2020/12/24 11:22:44;;;;;;;2.03;0.50;;;;;;;;;;5021723;28;20033;-79
2020/12/24 11:25:10;;;;;;;2.90;0.40;;;;;;;;;;5020984;28;20026;-79
2020/12/24 11:27:36;;;;;;;2.17;0.60;;;;;;;;;;5020203;28;20677;-79
2020/12/24 11:30:03;;;;;;;3.10;0.57;;;;;;;;;;5012992;28;20026;-80
2020/12/24 11:32:29;;;;;;;5.00;0.50;;;;;;;;;;5015470;28;20044;-77
2020/12/24 11:34:55;;;;;;;1.70;0.43;;;;;;;;;;5018533;28;20124;-78
2020/12/24 11:37:24;;;;;;;1.63;0.50;;;;;;;;;;5030034;28;20072;-79
2020/12/24 11:39:50;;;;;;;4.13;0.70;;;;;;;;;;5018491;28;20034;-80
2020/12/24 11:42:17;;;;;;;2.53;0.53;;;;;;;;;;5014991;28;20546;-80
2020/12/24 11:44:43;;;;;;;2.93;0.50;;;;;;;;;;5018487;28;20087;-79
2020/12/24 11:47:09;;;;;;;9.70;4.00;;;;;;;;;;5018347;28;20034;-79
2020/12/24 11:49:35;;;;;;;4.03;1.30;;;;;;;;;;5018437;28;20068;-79
2020/12/24 11:52:02;;;;;;;4.33;0.67;;;;;;;;;;5018378;28;20048;-79
2020/12/24 11:54:28;;;;;;;2.03;0.40;;;;;;;;;;5020853;28;20038;-81
2020/12/24 11:56:54;;;;;;;1.80;0.50;;;;;;;;;;5005710;28;20025;-79
2020/12/24 11:59:21;;;;;;;3.50;0.73;;;;;;;;;;5010611;28;20060;-79
2020/12/24 12:01:51;;;;;;;4.13;0.73;;;;;;;;;;5009561;28;20076;-78
2020/12/24 12:04:17;;;;;;;5.77;1.50;;;;;;;;;;5001326;28;20046;-79
2020/12/24 12:06:43;;;;;;;3.20;0.87;;;;;;;;;;5020192;28;20033;-78
2020/12/24 12:09:09;;;;;;;2.73;1.00;;;;;;;;;;5016352;28;20075;-77
2020/12/24 12:11:36;;;;;;;3.07;0.60;;;;;;;;;;5010981;28;20507;-78
2020/12/24 12:14:02;;;;;;;5.70;0.70;;;;;;;;;;5007347;28;20423;-78
2020/12/24 12:16:28;;;;;;;10.27;2.90;;;;;;;;;;5010625;28;20026;-78
2020/12/24 12:18:54;;;;;;;4.40;0.90;;;;;;;;;;5018949;28;20014;-78
2020/12/24 12:21:21;;;;;;;2.83;0.63;;;;;;;;;;5009969;28;20025;-79
2020/12/24 12:23:48;;;;;;;1.30;0.33;;;;;;;;;;5008560;28;20032;-78
2020/12/24 12:26:17;;;;;;;1.17;0.37;;;;;;;;;;5006424;28;20045;-79
2020/12/24 12:28:46;;;;;;;2.33;0.57;;;;;;;;;;5008339;28;20099;-78
2020/12/24 12:31:20;;;;;;;5.53;0.70;;;;;;;;;;5010421;28;20850;-79
2020/12/24 12:33:47;;;;;;;1.10;0.70;;;;;;;;;;5013015;28;20057;-79
2020/12/24 12:36:13;;;;;;;1.47;0.53;;;;;;;;;;5009535;28;20472;-79
2020/12/24 12:38:39;;;;;;;2.77;0.70;;;;;;;;;;5009024;28;20189;-78
2020/12/24 12:41:05;;;;;;;2.30;0.40;;;;;;;;;;5010757;28;20022;-80
2020/12/24 12:43:31;;;;;;;1.13;0.30;;;;;;;;;;5002995;28;20026;-80
2020/12/24 12:45:58;;;;;;;2.10;0.63;;;;;;;;;;5009193;28;20615;-79
2020/12/24 12:48:25;;;;;;;2.10;0.57;;;;;;;;;;5014197;28;20079;-78
2020/12/24 12:50:52;;;;;;;2.50;0.60;;;;;;;;;;5028153;28;20060;-79
2020/12/24 12:53:18;;;;;;;2.13;0.50;;;;;;;;;;5015264;28;20034;-80
2020/12/24 12:55:44;;;;;;;3.83;0.60;;;;;;;;;;5016972;28;20025;-80
2020/12/24 12:58:10;;;;;;;2.13;0.40;;;;;;;;;;5013489;28;20471;-78
2020/12/24 13:00:36;;;;;;;3.10;0.53;;;;;;;;;;5017404;28;20042;-77
2020/12/24 13:03:03;;;;;;;1.93;0.57;;;;;;;;;;5020668;28;20093;-78
2020/12/24 13:05:31;;;;;;;2.07;0.60;;;;;;;;;;5012011;28;20026;-78
2020/12/24 13:07:58;;;;;;;2.07;0.63;;;;;;;;;;5007810;28;20117;-78
2020/12/24 13:10:24;;;;;;;4.07;0.80;;;;;;;;;;5020141;28;20029;-78
2020/12/24 13:12:58;;;;;;;4.93;2.37;;;;;;;;;;5028100;28;20481;-78
2020/12/24 13:15:24;;;;;;;1.10;0.50;;;;;;;;;;5028600;28;20061;-79
2020/12/24 13:17:50;;;;;;;2.20;1.10;;;;;;;;;;5016598;28;20080;-78
2020/12/24 13:20:16;;;;;;;1.87;0.53;;;;;;;;;;5017960;28;20040;-78
2020/12/24 13:22:44;;;;;;;4.67;1.17;;;;;;;;;;5027832;28;20121;-78
2020/12/24 13:25:11;;;;;;;1.40;0.60;;;;;;;;;;5005589;28;20038;-77
2020/12/24 13:27:37;;;;;;;1.60;0.60;;;;;;;;;;5006009;28;20029;-79
2020/12/24 13:30:03;;;;;;;2.23;0.73;;;;;;;;;;5020214;28;20030;-78
2020/12/24 13:32:29;;;;;;;2.07;0.60;;;;;;;;;;5023870;28;20029;-78
2020/12/24 13:34:55;;;;;;;2.60;1.00;;;;;;;;;;5007951;28;20033;-78
2020/12/24 13:37:21;;;;;;;1.70;0.73;;;;;;;;;;5008421;28;20116;-78
2020/12/24 13:39:47;;;;;;;4.07;0.93;;;;;;;;;;5008121;28;20022;-78
2020/12/24 13:42:13;;;;;;;1.97;0.70;;;;;;;;;;5003323;28;20022;-78
2020/12/24 13:44:39;;;;;;;3.23;1.00;;;;;;;;;;5040558;28;20026;-78
2020/12/24 13:47:06;;;;;;;2.07;0.50;;;;;;;;;;5006067;28;20745;-78
2020/12/24 13:49:32;;;;;;;1.50;0.40;;;;;;;;;;5010470;28;20034;-77
2020/12/24 13:51:58;;;;;;;2.40;0.60;;;;;;;;;;5006919;28;21035;-78
2020/12/24 13:54:24;;;;;;;2.30;0.50;;;;;;;;;;5012117;28;20032;-78
2020/12/24 13:56:54;;;;;;;2.40;0.20;;;;;;;;;;5020991;28;20076;-78
2020/12/24 13:59:22;;;;;;;3.13;0.77;;;;;;;;;;5028592;28;20366;-78
2020/12/24 14:01:55;;;;;;;3.73;0.80;;;;;;;;;;5008079;28;20028;-79
2020/12/24 14:04:21;;;;;;;5.90;2.08;;;;;;;;;;5008279;28;20485;-79
2020/12/24 14:06:48;;;;;;;4.17;1.20;;;;;;;;;;5007664;28;20076;-78
2020/12/24 14:09:14;;;;;;;3.70;1.30;;;;;;;;;;5008770;28;20824;-80
2020/12/24 14:11:41;;;;;;;6.47;1.50;;;;;;;;;;5008367;28;20026;-79
2020/12/24 14:14:07;;;;;;;2.73;1.10;;;;;;;;;;5010578;28;20393;-80
2020/12/24 14:16:33;;;;;;;2.83;1.27;;;;;;;;;;5009146;28;20045;-79
2020/12/24 14:18:59;;;;;;;2.83;0.70;;;;;;;;;;5011243;28;20036;-81
2020/12/24 14:21:26;;;;;;;2.70;0.90;;;;;;;;;;5010240;28;20036;-79
2020/12/24 14:23:52;;;;;;;2.67;1.00;;;;;;;;;;5011011;28;20444;-80
2020/12/24 14:26:21;;;;;;;9.90;3.57;;;;;;;;;;5020501;28;20042;-79
2020/12/24 14:28:48;;;;;;;2.73;0.73;;;;;;;;;;5021984;28;20036;-80
2020/12/24 14:31:15;;;;;;;4.27;1.50;;;;;;;;;;5025462;28;20026;-81
2020/12/24 14:33:41;;;;;;;3.63;0.90;;;;;;;;;;5029363;28;20060;-81
2020/12/24 14:36:13;;;;;;;2.40;1.10;;;;;;;;;;5010383;28;20025;-81
2020/12/24 14:38:39;;;;;;;4.10;0.90;;;;;;;;;;5030282;28;20037;-81
2020/12/24 14:41:08;;;;;;;3.07;1.30;;;;;;;;;;5029632;28;20075;-81
2020/12/24 14:43:34;;;;;;;5.80;2.10;;;;;;;;;;5011846;28;20444;-81
2020/12/24 14:46:04;;;;;;;3.67;1.97;;;;;;;;;;5006687;28;20037;-81